createdAt,value
2023-02-09T00:01:53.188Z,15.06
2023-02-09T00:06:54.638Z,15.12
2023-02-09T00:12:14.264Z,14.99
2023-02-09T00:17:15.659Z,14.86
2023-02-09T00:22:17.039Z,14.99
2023-02-09T00:27:18.447Z,14.91
2023-02-09T00:32:19.840Z,14.98
2023-02-09T00:37:21.219Z,14.84
2023-02-09T00:42:22.592Z,14.92
2023-02-09T00:47:24.015Z,14.87
2023-02-09T00:52:25.390Z,15.00
2023-02-09T00:57:26.782Z,15.10
2023-02-09T01:02:28.238Z,14.99
2023-02-09T01:07:29.723Z,15.07
2023-02-09T01:12:31.146Z,15.04
2023-02-09T01:17:32.535Z,14.92
2023-02-09T01:22:33.981Z,15.04
2023-02-09T01:27:35.367Z,14.96
2023-02-09T01:32:36.913Z,15.09
2023-02-09T01:37:38.361Z,15.07
2023-02-09T01:42:42.840Z,15.15
2023-02-09T01:47:46.044Z,15.16
2023-02-09T01:52:47.482Z,15.13
2023-02-09T01:57:57.791Z,14.98
2023-02-09T02:03:01.740Z,15.07
2023-02-09T02:08:09.345Z,15.21
2023-02-09T02:13:10.754Z,14.81
2023-02-09T02:18:32.260Z,15.16
2023-02-09T02:24:12.555Z,15.21
2023-02-09T02:29:29.052Z,15.00
2023-02-09T02:34:45.592Z,14.85
2023-02-09T02:40:00.907Z,15.04
2023-02-09T02:45:12.566Z,15.06
2023-02-09T02:50:15.358Z,15.03
2023-02-09T02:55:18.092Z,14.83
2023-02-09T03:00:23.448Z,15.07
2023-02-09T03:05:24.944Z,15.05
2023-02-09T03:10:34.336Z,14.95
2023-02-09T03:15:57.457Z,15.07
2023-02-09T03:21:06.252Z,15.04
2023-02-09T03:26:09.756Z,15.27
2023-02-09T03:31:11.206Z,14.99
2023-02-09T03:36:15.641Z,15.09
2023-02-09T03:41:17.025Z,15.09
2023-02-09T03:46:18.446Z,14.87
2023-02-09T03:51:19.816Z,14.92
2023-02-09T03:56:24.762Z,15.07
2023-02-09T04:01:26.135Z,15.06
2023-02-09T04:06:28.879Z,14.94
2023-02-09T04:11:30.289Z,14.93
2023-02-09T04:16:31.799Z,15.03
2023-02-09T04:21:33.203Z,14.88
2023-02-09T04:26:34.640Z,15.03
2023-02-09T04:31:36.081Z,14.84
2023-02-09T04:36:37.560Z,14.94
2023-02-09T04:41:38.948Z,14.85
2023-02-09T04:46:40.397Z,15.15
2023-02-09T04:51:41.781Z,15.08
2023-02-09T04:56:43.155Z,15.16
2023-02-09T05:01:44.536Z,15.04
2023-02-09T05:06:45.927Z,14.87
2023-02-09T05:11:47.321Z,15.02
2023-02-09T05:16:48.812Z,15.05
2023-02-09T05:21:50.192Z,15.16
2023-02-09T05:26:51.572Z,14.84
2023-02-09T05:31:52.978Z,14.90
2023-02-09T05:36:54.385Z,14.96
2023-02-09T05:42:13.986Z,14.93
2023-02-09T05:47:16.983Z,14.86
2023-02-09T05:52:18.665Z,14.82
2023-02-09T05:57:20.054Z,14.73
2023-02-09T06:02:21.464Z,15.01
2023-02-09T06:07:22.866Z,14.54
2023-02-09T06:12:24.351Z,14.82
2023-02-09T06:17:25.846Z,14.88
2023-02-09T06:22:29.049Z,14.75
2023-02-09T06:27:30.453Z,14.84
2023-02-09T06:32:31.842Z,14.47
2023-02-09T06:37:33.265Z,14.80
2023-02-09T06:42:46.316Z,14.77
2023-02-09T06:47:47.700Z,14.75
2023-02-09T06:52:49.099Z,14.54
2023-02-09T06:57:50.474Z,14.85
2023-02-09T07:02:52.001Z,14.64
2023-02-09T07:07:53.444Z,14.72
2023-02-09T07:12:57.002Z,14.80
2023-02-09T07:17:58.402Z,15.24
2023-02-09T07:23:01.266Z,15.05
2023-02-09T07:28:02.770Z,15.21
2023-02-09T07:33:04.482Z,15.07
2023-02-09T07:38:05.967Z,15.15
2023-02-09T07:43:07.464Z,15.14
2023-02-09T07:48:09.927Z,15.13
2023-02-09T07:53:11.305Z,15.51
2023-02-09T07:58:12.767Z,15.79
2023-02-09T08:03:15.240Z,15.67
2023-02-09T08:08:16.621Z,15.93
2023-02-09T08:13:18.003Z,16.43
2023-02-09T08:18:25.267Z,15.91
2023-02-09T08:23:31.061Z,16.08
2023-02-09T08:28:43.531Z,15.78
2023-02-09T08:33:46.462Z,15.76
2023-02-09T08:38:50.764Z,15.77
2023-02-09T08:43:52.153Z,16.30
2023-02-09T08:48:53.532Z,16.22
2023-02-09T08:53:54.932Z,16.31
2023-02-09T08:58:56.360Z,16.14
2023-02-09T09:03:57.802Z,16.09
2023-02-09T09:08:59.219Z,16.16
2023-02-09T09:14:00.749Z,16.29
2023-02-09T09:19:03.387Z,16.33
2023-02-09T09:24:04.933Z,16.11
2023-02-09T09:29:06.327Z,16.04
2023-02-09T09:34:07.718Z,16.27
2023-02-09T09:39:09.092Z,16.25
2023-02-09T09:44:14.157Z,16.46
2023-02-09T09:49:24.099Z,16.42
2023-02-09T09:54:25.901Z,16.55
2023-02-09T09:59:30.279Z,16.15
2023-02-09T10:04:33.027Z,16.25
2023-02-09T10:09:55.884Z,16.75
2023-02-09T10:14:57.377Z,16.63
2023-02-09T10:20:04.243Z,16.70
2023-02-09T10:25:44.445Z,16.53
2023-02-09T10:30:46.296Z,16.48
2023-02-09T10:35:51.410Z,16.06
2023-02-09T10:40:53.126Z,16.22
2023-02-09T10:45:56.252Z,16.12
2023-02-09T10:51:05.464Z,16.21
2023-02-09T10:56:09.545Z,16.17
2023-02-09T11:01:19.407Z,15.92
2023-02-09T11:06:20.841Z,16.42
2023-02-09T11:11:33.084Z,16.12
2023-02-09T11:17:02.556Z,15.56
2023-02-09T11:22:19.113Z,15.80
2023-02-09T11:27:21.438Z,15.71
2023-02-09T11:32:23.546Z,15.73
2023-02-09T11:37:40.410Z,15.46
2023-02-09T11:42:45.944Z,15.49
2023-02-09T11:48:26.125Z,15.96
2023-02-09T11:53:55.486Z,15.64
2023-02-09T11:59:18.724Z,16.10
2023-02-09T12:04:25.494Z,16.27
2023-02-09T12:09:39.007Z,15.94
2023-02-09T12:14:58.340Z,15.34
2023-02-09T12:20:00.590Z,15.50
2023-02-09T12:25:18.532Z,15.51
2023-02-09T12:30:41.528Z,15.53
2023-02-09T12:35:42.945Z,15.36
2023-02-09T12:40:44.489Z,15.57
2023-02-09T12:45:46.442Z,16.07
2023-02-09T12:50:53.430Z,16.30
2023-02-09T12:56:14.503Z,15.60
2023-02-09T13:01:16.254Z,15.98
2023-02-09T13:06:36.413Z,15.96
2023-02-09T13:11:44.758Z,16.07
2023-02-09T13:17:04.407Z,15.91
2023-02-09T13:22:29.961Z,15.53
2023-02-09T13:27:31.283Z,15.79
2023-02-09T13:33:11.559Z,15.67
2023-02-09T13:38:15.794Z,16.18
2023-02-09T13:43:20.688Z,15.96
2023-02-09T13:48:28.748Z,15.84
2023-02-09T13:53:30.689Z,15.87
2023-02-09T13:58:34.947Z,15.97
2023-02-09T14:03:46.920Z,16.04
2023-02-09T14:08:57.800Z,16.01
2023-02-09T14:14:01.727Z,16.17
2023-02-09T14:19:03.330Z,16.11
2023-02-09T14:24:18.947Z,16.40
2023-02-09T14:29:28.163Z,16.15
2023-02-09T14:34:35.636Z,17.44
2023-02-09T14:39:56.255Z,18.23
2023-02-09T14:45:27.335Z,18.51
2023-02-09T14:50:28.700Z,18.65
2023-02-09T14:55:30.149Z,18.46
2023-02-09T15:00:31.609Z,18.20
2023-02-09T15:05:32.984Z,18.30
2023-02-09T15:10:36.365Z,18.26
2023-02-09T15:15:39.576Z,18.34
2023-02-09T15:20:40.970Z,18.11
2023-02-09T15:25:42.429Z,18.15
2023-02-09T15:30:44.143Z,18.12
2023-02-09T15:35:46.227Z,18.40
2023-02-09T15:41:06.734Z,18.33
2023-02-09T15:46:26.742Z,18.42
2023-02-09T15:51:31.178Z,18.34
2023-02-09T15:56:32.574Z,18.17
2023-02-09T16:01:34.361Z,18.42
2023-02-09T16:06:35.914Z,18.29
2023-02-09T16:11:40.017Z,18.48
2023-02-09T16:16:41.415Z,18.46
2023-02-09T16:21:44.736Z,18.38
2023-02-09T16:26:46.117Z,18.32
2023-02-09T16:31:47.761Z,18.53
2023-02-09T16:36:49.178Z,18.38
2023-02-09T16:41:50.772Z,18.19
2023-02-09T16:46:53.744Z,18.29
2023-02-09T16:51:56.130Z,18.51
2023-02-09T16:56:57.561Z,18.36
2023-02-09T17:01:59.763Z,18.33
2023-02-09T17:07:01.285Z,18.75
2023-02-09T17:12:02.667Z,18.65
2023-02-09T17:17:04.053Z,18.51
2023-02-09T17:22:12.004Z,18.50
2023-02-09T17:27:13.578Z,18.47
2023-02-09T17:32:15.098Z,18.66
2023-02-09T17:37:16.669Z,18.49
2023-02-09T17:42:21.357Z,18.51
2023-02-09T17:47:23.999Z,18.85
2023-02-09T17:52:25.373Z,18.78
2023-02-09T17:57:27.454Z,18.72
2023-02-09T18:02:28.919Z,18.93
2023-02-09T18:07:30.346Z,18.90
2023-02-09T18:12:31.722Z,18.75
2023-02-09T18:17:33.094Z,18.85
2023-02-09T18:22:34.547Z,18.81
2023-02-09T18:27:36.091Z,18.90
2023-02-09T18:32:37.501Z,19.06
2023-02-09T18:37:38.936Z,18.93
2023-02-09T18:42:40.384Z,19.10
2023-02-09T18:47:43.081Z,18.81
2023-02-09T18:53:00.408Z,19.01
2023-02-09T18:58:02.914Z,19.06
2023-02-09T19:03:04.323Z,19.09
2023-02-09T19:08:07.187Z,18.81
2023-02-09T19:13:08.633Z,18.70
2023-02-09T19:18:10.017Z,18.99
2023-02-09T19:23:11.422Z,19.03
2023-02-09T19:28:12.813Z,19.13
2023-02-09T19:33:14.312Z,19.09
2023-02-09T19:38:15.698Z,18.63
2023-02-09T19:43:17.087Z,19.08
2023-02-09T19:48:18.455Z,18.89
2023-02-09T19:53:19.829Z,18.97
2023-02-09T19:58:21.627Z,18.90
2023-02-09T20:03:23.857Z,18.85
2023-02-09T20:08:25.382Z,18.84
2023-02-09T20:13:26.757Z,18.93
2023-02-09T20:18:28.147Z,18.91
2023-02-09T20:23:29.660Z,18.93
2023-02-09T20:28:31.049Z,19.15
2023-02-09T20:33:33.942Z,18.74
2023-02-09T20:38:35.820Z,18.93
2023-02-09T20:43:56.483Z,18.69
2023-02-09T20:48:57.870Z,19.17
2023-02-09T20:53:59.308Z,19.04
2023-02-09T20:59:00.785Z,19.03
2023-02-09T21:04:02.180Z,19.12
2023-02-09T21:09:05.192Z,19.20
2023-02-09T21:14:06.604Z,19.11
2023-02-09T21:19:08.011Z,19.16
2023-02-09T21:24:09.869Z,19.11
2023-02-09T21:29:11.356Z,19.06
2023-02-09T21:34:14.567Z,19.19
2023-02-09T21:39:15.947Z,19.07
2023-02-09T21:44:17.379Z,19.03
2023-02-09T21:49:18.775Z,19.13
2023-02-09T21:54:20.174Z,19.09
2023-02-09T21:59:21.565Z,19.21
2023-02-09T22:04:22.960Z,19.25
2023-02-09T22:09:25.031Z,18.98
2023-02-09T22:14:26.436Z,19.20
2023-02-09T22:19:27.864Z,18.99
2023-02-09T22:24:30.106Z,19.14
2023-02-09T22:29:33.118Z,19.10
2023-02-09T22:34:34.533Z,19.15
2023-02-09T22:39:35.960Z,19.20
2023-02-09T22:44:37.327Z,19.13
2023-02-09T22:49:38.702Z,19.21
2023-02-09T22:54:40.086Z,19.09
2023-02-09T22:59:41.872Z,19.14
2023-02-09T23:04:43.261Z,18.90
2023-02-09T23:09:44.637Z,19.12
2023-02-09T23:14:46.087Z,18.99
2023-02-09T23:19:47.494Z,18.87
2023-02-09T23:24:48.877Z,18.81
2023-02-09T23:29:50.278Z,19.02
2023-02-09T23:34:51.693Z,19.08
2023-02-09T23:39:53.150Z,18.90
2023-02-09T23:44:54.534Z,19.13
2023-02-09T23:49:56.988Z,18.83
2023-02-09T23:54:58.372Z,19.02
2023-02-09T23:59:59.770Z,18.89
